sensor_id;sensor_type;location;lat;lon;timestamp;P1;durP1;ratioP1;P2;durP2;ratioP2
25990;SDS011;13779;-33.886;151.198;2023-01-05T00:02:19;21.87;;;4.07;;
25990;SDS011;13779;-33.886;151.198;2023-01-05T00:07:20;16.33;;;2.58;;
25990;SDS011;13779;-33.886;151.198;2023-01-05T00:09:50;18.90;;;2.97;;
25990;SDS011;13779;-33.886;151.198;2023-01-05T00:12:21;20.60;;;3.13;;
25990;SDS011;13779;-33.886;151.198;2023-01-05T00:15:09;15.35;;;2.80;;
25990;SDS011;13779;-33.886;151.198;2023-01-05T00:17:58;11.38;;;2.80;;
25990;SDS011;13779;-33.886;151.198;2023-01-05T00:20:47;19.85;;;3.47;;
25990;SDS011;13779;-33.886;151.198;2023-01-05T00:23:35;16.45;;;3.33;;
25990;SDS011;13779;-33.886;151.198;2023-01-05T00:26:06;20.30;;;3.13;;
25990;SDS011;13779;-33.886;151.198;2023-01-05T00:28:36;18.83;;;2.37;;
25990;SDS011;13779;-33.886;151.198;2023-01-05T00:31:06;13.13;;;3.03;;
25990;SDS011;13779;-33.886;151.198;2023-01-05T00:33:37;16.30;;;2.60;;
25990;SDS011;13779;-33.886;151.198;2023-01-05T00:36:08;19.13;;;3.08;;
25990;SDS011;13779;-33.886;151.198;2023-01-05T00:38:41;12.68;;;2.80;;
25990;SDS011;13779;-33.886;151.198;2023-01-05T00:41:12;16.50;;;2.83;;
25990;SDS011;13779;-33.886;151.198;2023-01-05T00:43:43;14.15;;;2.33;;
25990;SDS011;13779;-33.886;151.198;2023-01-05T00:46:13;18.85;;;3.05;;
25990;SDS011;13779;-33.886;151.198;2023-01-05T00:48:44;17.85;;;3.70;;
25990;SDS011;13779;-33.886;151.198;2023-01-05T00:51:14;19.90;;;3.08;;
25990;SDS011;13779;-33.886;151.198;2023-01-05T00:53:46;16.97;;;3.80;;
25990;SDS011;13779;-33.886;151.198;2023-01-05T00:56:20;14.32;;;2.33;;
25990;SDS011;13779;-33.886;151.198;2023-01-05T00:58:53;17.42;;;2.95;;
25990;SDS011;13779;-33.886;151.198;2023-01-05T01:01:24;9.32;;;2.38;;
25990;SDS011;13779;-33.886;151.198;2023-01-05T01:03:54;14.65;;;2.35;;
25990;SDS011;13779;-33.886;151.198;2023-01-05T01:06:26;24.05;;;2.60;;
25990;SDS011;13779;-33.886;151.198;2023-01-05T01:08:58;15.85;;;3.63;;
25990;SDS011;13779;-33.886;151.198;2023-01-05T01:11:28;20.63;;;3.40;;
25990;SDS011;13779;-33.886;151.198;2023-01-05T01:13:59;16.77;;;4.15;;
25990;SDS011;13779;-33.886;151.198;2023-01-05T01:16:30;29.85;;;3.80;;
25990;SDS011;13779;-33.886;151.198;2023-01-05T01:19:01;24.33;;;3.40;;
25990;SDS011;13779;-33.886;151.198;2023-01-05T01:21:34;16.77;;;3.45;;
25990;SDS011;13779;-33.886;151.198;2023-01-05T01:24:05;29.60;;;3.55;;
25990;SDS011;13779;-33.886;151.198;2023-01-05T01:26:36;18.83;;;3.33;;
25990;SDS011;13779;-33.886;151.198;2023-01-05T01:29:07;18.77;;;2.90;;
25990;SDS011;13779;-33.886;151.198;2023-01-05T01:31:37;13.45;;;2.88;;
25990;SDS011;13779;-33.886;151.198;2023-01-05T01:34:08;17.42;;;3.13;;
25990;SDS011;13779;-33.886;151.198;2023-01-05T01:36:39;19.65;;;3.80;;
25990;SDS011;13779;-33.886;151.198;2023-01-05T01:39:10;21.23;;;2.83;;
25990;SDS011;13779;-33.886;151.198;2023-01-05T01:41:41;22.85;;;4.82;;
25990;SDS011;13779;-33.886;151.198;2023-01-05T01:47:27;26.08;;;3.53;;
25990;SDS011;13779;-33.886;151.198;2023-01-05T01:50:02;22.30;;;3.45;;
25990;SDS011;13779;-33.886;151.198;2023-01-05T01:52:39;22.15;;;3.83;;
25990;SDS011;13779;-33.886;151.198;2023-01-05T01:55:11;24.42;;;3.30;;
25990;SDS011;13779;-33.886;151.198;2023-01-05T01:57:43;18.23;;;3.42;;
25990;SDS011;13779;-33.886;151.198;2023-01-05T02:00:14;20.77;;;4.03;;
25990;SDS011;13779;-33.886;151.198;2023-01-05T02:02:48;28.45;;;5.80;;
25990;SDS011;13779;-33.886;151.198;2023-01-05T02:05:23;14.98;;;2.60;;
25990;SDS011;13779;-33.886;151.198;2023-01-05T02:07:57;13.77;;;2.88;;
25990;SDS011;13779;-33.886;151.198;2023-01-05T02:15:43;19.85;;;2.63;;
25990;SDS011;13779;-33.886;151.198;2023-01-05T02:35:50;17.13;;;2.90;;
25990;SDS011;13779;-33.886;151.198;2023-01-05T02:38:56;20.05;;;2.88;;
25990;SDS011;13779;-33.886;151.198;2023-01-05T02:44:09;20.73;;;3.13;;
25990;SDS011;13779;-33.886;151.198;2023-01-05T02:46:43;19.30;;;3.00;;
25990;SDS011;13779;-33.886;151.198;2023-01-05T02:51:46;19.40;;;3.22;;
25990;SDS011;13779;-33.886;151.198;2023-01-05T02:54:38;21.85;;;3.67;;
25990;SDS011;13779;-33.886;151.198;2023-01-05T02:57:17;13.95;;;3.25;;
25990;SDS011;13779;-33.886;151.198;2023-01-05T03:00:19;21.05;;;3.33;;
25990;SDS011;13779;-33.886;151.198;2023-01-05T03:03:05;18.55;;;3.78;;
25990;SDS011;13779;-33.886;151.198;2023-01-05T03:05:40;23.52;;;4.20;;
25990;SDS011;13779;-33.886;151.198;2023-01-05T03:08:17;28.10;;;4.80;;
25990;SDS011;13779;-33.886;151.198;2023-01-05T03:11:05;23.95;;;5.80;;
25990;SDS011;13779;-33.886;151.198;2023-01-05T03:13:59;26.33;;;5.15;;
25990;SDS011;13779;-33.886;151.198;2023-01-05T03:16:37;18.55;;;3.38;;
25990;SDS011;13779;-33.886;151.198;2023-01-05T03:19:10;22.13;;;4.72;;
25990;SDS011;13779;-33.886;151.198;2023-01-05T03:22:03;17.05;;;2.95;;
25990;SDS011;13779;-33.886;151.198;2023-01-05T03:24:58;22.05;;;2.90;;
25990;SDS011;13779;-33.886;151.198;2023-01-05T03:27:47;27.27;;;5.10;;
25990;SDS011;13779;-33.886;151.198;2023-01-05T03:30:44;20.88;;;3.17;;
25990;SDS011;13779;-33.886;151.198;2023-01-05T03:33:45;18.27;;;3.50;;
25990;SDS011;13779;-33.886;151.198;2023-01-05T03:36:51;22.35;;;3.13;;
25990;SDS011;13779;-33.886;151.198;2023-01-05T03:39:27;20.92;;;4.85;;
25990;SDS011;13779;-33.886;151.198;2023-01-05T03:42:00;20.70;;;3.13;;
25990;SDS011;13779;-33.886;151.198;2023-01-05T03:44:33;22.60;;;3.03;;
25990;SDS011;13779;-33.886;151.198;2023-01-05T03:47:05;16.17;;;2.78;;
25990;SDS011;13779;-33.886;151.198;2023-01-05T03:49:36;17.75;;;3.03;;
25990;SDS011;13779;-33.886;151.198;2023-01-05T03:52:07;14.18;;;2.70;;
25990;SDS011;13779;-33.886;151.198;2023-01-05T03:54:37;16.95;;;3.28;;
25990;SDS011;13779;-33.886;151.198;2023-01-05T03:57:08;21.08;;;3.10;;
25990;SDS011;13779;-33.886;151.198;2023-01-05T03:59:39;23.60;;;3.47;;
25990;SDS011;13779;-33.886;151.198;2023-01-05T04:02:10;18.25;;;3.05;;
25990;SDS011;13779;-33.886;151.198;2023-01-05T04:04:43;15.63;;;2.65;;
25990;SDS011;13779;-33.886;151.198;2023-01-05T04:07:17;22.98;;;3.53;;
25990;SDS011;13779;-33.886;151.198;2023-01-05T04:09:47;16.95;;;3.08;;
25990;SDS011;13779;-33.886;151.198;2023-01-05T04:12:18;20.95;;;3.78;;
25990;SDS011;13779;-33.886;151.198;2023-01-05T04:14:48;15.80;;;2.90;;
25990;SDS011;13779;-33.886;151.198;2023-01-05T04:17:19;19.05;;;3.20;;
25990;SDS011;13779;-33.886;151.198;2023-01-05T04:19:49;21.40;;;3.28;;
25990;SDS011;13779;-33.886;151.198;2023-01-05T04:22:20;14.98;;;2.63;;
25990;SDS011;13779;-33.886;151.198;2023-01-05T04:24:53;15.57;;;3.20;;
25990;SDS011;13779;-33.886;151.198;2023-01-05T04:27:24;15.50;;;2.85;;
25990;SDS011;13779;-33.886;151.198;2023-01-05T04:29:54;22.80;;;3.75;;
25990;SDS011;13779;-33.886;151.198;2023-01-05T04:32:25;20.75;;;3.58;;
25990;SDS011;13779;-33.886;151.198;2023-01-05T04:34:55;20.00;;;3.30;;
25990;SDS011;13779;-33.886;151.198;2023-01-05T04:37:29;20.58;;;3.88;;
25990;SDS011;13779;-33.886;151.198;2023-01-05T04:40:00;17.52;;;2.85;;
25990;SDS011;13779;-33.886;151.198;2023-01-05T04:42:30;18.77;;;3.42;;
25990;SDS011;13779;-33.886;151.198;2023-01-05T04:45:01;16.85;;;4.53;;
25990;SDS011;13779;-33.886;151.198;2023-01-05T04:47:32;19.27;;;3.33;;
25990;SDS011;13779;-33.886;151.198;2023-01-05T04:50:02;18.38;;;2.90;;
25990;SDS011;13779;-33.886;151.198;2023-01-05T04:52:33;18.00;;;2.97;;
25990;SDS011;13779;-33.886;151.198;2023-01-05T04:55:04;22.08;;;4.28;;
25990;SDS011;13779;-33.886;151.198;2023-01-05T04:57:35;18.20;;;3.75;;
25990;SDS011;13779;-33.886;151.198;2023-01-05T05:00:06;18.73;;;3.92;;
25990;SDS011;13779;-33.886;151.198;2023-01-05T05:02:41;19.05;;;3.17;;
25990;SDS011;13779;-33.886;151.198;2023-01-05T05:05:11;19.38;;;2.88;;
25990;SDS011;13779;-33.886;151.198;2023-01-05T05:07:42;21.85;;;3.78;;
25990;SDS011;13779;-33.886;151.198;2023-01-05T05:10:13;17.45;;;2.72;;
25990;SDS011;13779;-33.886;151.198;2023-01-05T05:12:45;17.20;;;2.90;;
25990;SDS011;13779;-33.886;151.198;2023-01-05T05:15:16;14.47;;;2.23;;
25990;SDS011;13779;-33.886;151.198;2023-01-05T05:17:46;17.35;;;3.70;;
25990;SDS011;13779;-33.886;151.198;2023-01-05T05:20:17;19.40;;;3.08;;
25990;SDS011;13779;-33.886;151.198;2023-01-05T05:22:47;21.90;;;3.10;;
25990;SDS011;13779;-33.886;151.198;2023-01-05T05:25:18;19.33;;;3.27;;
25990;SDS011;13779;-33.886;151.198;2023-01-05T05:27:49;24.73;;;3.95;;
25990;SDS011;13779;-33.886;151.198;2023-01-05T05:30:19;24.30;;;3.97;;
25990;SDS011;13779;-33.886;151.198;2023-01-05T05:32:50;18.92;;;3.78;;
25990;SDS011;13779;-33.886;151.198;2023-01-05T05:35:20;21.77;;;3.63;;
25990;SDS011;13779;-33.886;151.198;2023-01-05T05:37:51;24.98;;;3.75;;
25990;SDS011;13779;-33.886;151.198;2023-01-05T05:42:54;28.55;;;3.38;;
25990;SDS011;13779;-33.886;151.198;2023-01-05T05:45:24;24.63;;;5.28;;
25990;SDS011;13779;-33.886;151.198;2023-01-05T05:47:55;13.70;;;2.97;;
25990;SDS011;13779;-33.886;151.198;2023-01-05T05:50:26;16.55;;;3.83;;
25990;SDS011;13779;-33.886;151.198;2023-01-05T05:52:56;14.95;;;3.20;;
25990;SDS011;13779;-33.886;151.198;2023-01-05T05:57:57;19.35;;;4.65;;
25990;SDS011;13779;-33.886;151.198;2023-01-05T06:00:28;23.10;;;3.55;;
25990;SDS011;13779;-33.886;151.198;2023-01-05T06:02:59;34.00;;;5.82;;
25990;SDS011;13779;-33.886;151.198;2023-01-05T06:05:29;26.98;;;5.28;;
25990;SDS011;13779;-33.886;151.198;2023-01-05T06:08:00;22.43;;;3.03;;
25990;SDS011;13779;-33.886;151.198;2023-01-05T06:10:30;21.83;;;3.85;;
25990;SDS011;13779;-33.886;151.198;2023-01-05T06:13:01;25.10;;;3.90;;
25990;SDS011;13779;-33.886;151.198;2023-01-05T06:15:32;16.17;;;3.33;;
25990;SDS011;13779;-33.886;151.198;2023-01-05T06:18:03;20.08;;;2.88;;
25990;SDS011;13779;-33.886;151.198;2023-01-05T06:20:34;25.33;;;3.23;;
25990;SDS011;13779;-33.886;151.198;2023-01-05T06:23:04;21.05;;;2.95;;
25990;SDS011;13779;-33.886;151.198;2023-01-05T06:25:35;17.83;;;3.67;;
25990;SDS011;13779;-33.886;151.198;2023-01-05T06:28:06;18.92;;;2.95;;
25990;SDS011;13779;-33.886;151.198;2023-01-05T06:30:39;20.92;;;4.43;;
25990;SDS011;13779;-33.886;151.198;2023-01-05T06:33:10;21.50;;;2.63;;
25990;SDS011;13779;-33.886;151.198;2023-01-05T06:35:40;12.87;;;2.20;;
25990;SDS011;13779;-33.886;151.198;2023-01-05T06:38:11;16.55;;;2.90;;
25990;SDS011;13779;-33.886;151.198;2023-01-05T06:40:45;12.73;;;2.50;;
25990;SDS011;13779;-33.886;151.198;2023-01-05T06:43:15;14.02;;;2.20;;
25990;SDS011;13779;-33.886;151.198;2023-01-05T06:45:46;19.45;;;2.72;;
25990;SDS011;13779;-33.886;151.198;2023-01-05T06:48:16;14.70;;;2.85;;
25990;SDS011;13779;-33.886;151.198;2023-01-05T06:50:46;20.83;;;3.53;;
25990;SDS011;13779;-33.886;151.198;2023-01-05T06:53:17;12.65;;;2.45;;
25990;SDS011;13779;-33.886;151.198;2023-01-05T06:55:47;27.35;;;8.00;;
25990;SDS011;13779;-33.886;151.198;2023-01-05T06:58:17;18.75;;;3.13;;
25990;SDS011;13779;-33.886;151.198;2023-01-05T07:00:47;17.00;;;3.58;;
25990;SDS011;13779;-33.886;151.198;2023-01-05T07:03:17;20.40;;;3.75;;
25990;SDS011;13779;-33.886;151.198;2023-01-05T07:05:48;21.15;;;2.80;;
25990;SDS011;13779;-33.886;151.198;2023-01-05T07:08:18;18.70;;;3.00;;
25990;SDS011;13779;-33.886;151.198;2023-01-05T07:10:48;14.07;;;2.97;;
25990;SDS011;13779;-33.886;151.198;2023-01-05T07:13:18;11.90;;;2.78;;
25990;SDS011;13779;-33.886;151.198;2023-01-05T07:15:51;11.65;;;2.65;;
25990;SDS011;13779;-33.886;151.198;2023-01-05T07:18:22;14.35;;;3.42;;
25990;SDS011;13779;-33.886;151.198;2023-01-05T07:20:52;18.08;;;4.60;;
25990;SDS011;13779;-33.886;151.198;2023-01-05T07:23:22;16.95;;;3.10;;
25990;SDS011;13779;-33.886;151.198;2023-01-05T07:25:52;15.48;;;2.97;;
25990;SDS011;13779;-33.886;151.198;2023-01-05T07:28:22;19.80;;;3.83;;
25990;SDS011;13779;-33.886;151.198;2023-01-05T07:30:52;18.88;;;3.65;;
25990;SDS011;13779;-33.886;151.198;2023-01-05T07:33:22;14.48;;;3.30;;
25990;SDS011;13779;-33.886;151.198;2023-01-05T07:35:53;19.50;;;2.97;;
25990;SDS011;13779;-33.886;151.198;2023-01-05T07:38:23;20.23;;;3.42;;
25990;SDS011;13779;-33.886;151.198;2023-01-05T07:40:56;17.08;;;3.70;;
25990;SDS011;13779;-33.886;151.198;2023-01-05T07:43:28;17.23;;;3.20;;
25990;SDS011;13779;-33.886;151.198;2023-01-05T07:45:59;17.85;;;4.93;;
25990;SDS011;13779;-33.886;151.198;2023-01-05T07:48:31;18.52;;;3.42;;
25990;SDS011;13779;-33.886;151.198;2023-01-05T07:51:02;17.92;;;3.15;;
25990;SDS011;13779;-33.886;151.198;2023-01-05T07:53:34;18.90;;;4.10;;
25990;SDS011;13779;-33.886;151.198;2023-01-05T07:56:10;15.55;;;3.22;;
25990;SDS011;13779;-33.886;151.198;2023-01-05T07:58:45;16.50;;;3.03;;
25990;SDS011;13779;-33.886;151.198;2023-01-05T08:01:16;12.47;;;2.60;;
25990;SDS011;13779;-33.886;151.198;2023-01-05T08:03:47;12.85;;;3.15;;
25990;SDS011;13779;-33.886;151.198;2023-01-05T08:06:18;15.98;;;3.00;;
25990;SDS011;13779;-33.886;151.198;2023-01-05T08:08:49;15.80;;;2.78;;
25990;SDS011;13779;-33.886;151.198;2023-01-05T08:11:20;19.38;;;3.78;;
25990;SDS011;13779;-33.886;151.198;2023-01-05T08:13:51;19.92;;;2.50;;
25990;SDS011;13779;-33.886;151.198;2023-01-05T08:16:28;13.55;;;2.67;;
25990;SDS011;13779;-33.886;151.198;2023-01-05T08:19:00;18.40;;;3.17;;
25990;SDS011;13779;-33.886;151.198;2023-01-05T08:21:36;18.98;;;3.70;;
25990;SDS011;13779;-33.886;151.198;2023-01-05T08:24:07;20.30;;;3.17;;
25990;SDS011;13779;-33.886;151.198;2023-01-05T08:26:37;12.43;;;2.27;;
25990;SDS011;13779;-33.886;151.198;2023-01-05T08:29:08;20.17;;;3.45;;
25990;SDS011;13779;-33.886;151.198;2023-01-05T08:31:42;17.73;;;4.15;;
25990;SDS011;13779;-33.886;151.198;2023-01-05T08:34:13;17.70;;;2.88;;
25990;SDS011;13779;-33.886;151.198;2023-01-05T08:36:43;17.92;;;4.50;;
25990;SDS011;13779;-33.886;151.198;2023-01-05T08:39:14;12.27;;;2.17;;
25990;SDS011;13779;-33.886;151.198;2023-01-05T08:41:44;16.33;;;3.45;;
25990;SDS011;13779;-33.886;151.198;2023-01-05T08:44:16;14.27;;;2.65;;
25990;SDS011;13779;-33.886;151.198;2023-01-05T08:46:46;14.00;;;2.42;;
25990;SDS011;13779;-33.886;151.198;2023-01-05T08:49:17;22.70;;;3.20;;
25990;SDS011;13779;-33.886;151.198;2023-01-05T08:51:48;20.00;;;4.32;;
25990;SDS011;13779;-33.886;151.198;2023-01-05T08:54:19;19.30;;;3.60;;
25990;SDS011;13779;-33.886;151.198;2023-01-05T08:56:49;18.45;;;3.90;;
25990;SDS011;13779;-33.886;151.198;2023-01-05T08:59:20;18.30;;;3.05;;
25990;SDS011;13779;-33.886;151.198;2023-01-05T09:01:51;15.73;;;3.93;;
25990;SDS011;13779;-33.886;151.198;2023-01-05T09:04:21;17.45;;;3.75;;
25990;SDS011;13779;-33.886;151.198;2023-01-05T09:06:55;15.38;;;2.65;;
25990;SDS011;13779;-33.886;151.198;2023-01-05T09:09:25;21.65;;;3.63;;
25990;SDS011;13779;-33.886;151.198;2023-01-05T09:11:56;18.05;;;4.30;;
25990;SDS011;13779;-33.886;151.198;2023-01-05T09:14:26;19.55;;;3.15;;
25990;SDS011;13779;-33.886;151.198;2023-01-05T09:16:57;13.25;;;2.63;;
25990;SDS011;13779;-33.886;151.198;2023-01-05T09:19:33;18.85;;;3.33;;
25990;SDS011;13779;-33.886;151.198;2023-01-05T09:22:04;16.42;;;3.97;;
25990;SDS011;13779;-33.886;151.198;2023-01-05T09:24:35;15.70;;;2.55;;
25990;SDS011;13779;-33.886;151.198;2023-01-05T09:29:36;22.65;;;2.90;;
25990;SDS011;13779;-33.886;151.198;2023-01-05T09:32:07;18.10;;;3.30;;
25990;SDS011;13779;-33.886;151.198;2023-01-05T09:34:39;17.20;;;3.28;;
25990;SDS011;13779;-33.886;151.198;2023-01-05T09:37:10;19.13;;;3.30;;
25990;SDS011;13779;-33.886;151.198;2023-01-05T09:39:41;18.67;;;2.80;;
25990;SDS011;13779;-33.886;151.198;2023-01-05T09:42:13;22.38;;;3.25;;
25990;SDS011;13779;-33.886;151.198;2023-01-05T09:44:47;16.08;;;2.75;;
25990;SDS011;13779;-33.886;151.198;2023-01-05T09:50:06;18.23;;;3.88;;
25990;SDS011;13779;-33.886;151.198;2023-01-05T09:52:46;20.52;;;3.72;;
25990;SDS011;13779;-33.886;151.198;2023-01-05T09:55:19;23.23;;;4.18;;
25990;SDS011;13779;-33.886;151.198;2023-01-05T09:57:59;23.38;;;3.67;;
25990;SDS011;13779;-33.886;151.198;2023-01-05T10:00:39;20.20;;;3.90;;
25990;SDS011;13779;-33.886;151.198;2023-01-05T10:03:18;14.93;;;2.72;;
25990;SDS011;13779;-33.886;151.198;2023-01-05T10:06:12;16.27;;;3.25;;
25990;SDS011;13779;-33.886;151.198;2023-01-05T10:08:44;22.55;;;3.28;;
25990;SDS011;13779;-33.886;151.198;2023-01-05T10:11:22;23.92;;;3.72;;
25990;SDS011;13779;-33.886;151.198;2023-01-05T10:14:27;19.13;;;3.22;;
25990;SDS011;13779;-33.886;151.198;2023-01-05T10:17:11;15.18;;;3.00;;
25990;SDS011;13779;-33.886;151.198;2023-01-05T10:20:13;15.13;;;2.45;;
25990;SDS011;13779;-33.886;151.198;2023-01-05T10:22:50;24.10;;;3.93;;
25990;SDS011;13779;-33.886;151.198;2023-01-05T10:45:15;15.32;;;2.53;;
25990;SDS011;13779;-33.886;151.198;2023-01-05T10:47:47;16.60;;;3.15;;
25990;SDS011;13779;-33.886;151.198;2023-01-05T10:50:22;14.30;;;2.60;;
25990;SDS011;13779;-33.886;151.198;2023-01-05T10:53:09;13.48;;;2.45;;
25990;SDS011;13779;-33.886;151.198;2023-01-05T10:59:26;13.77;;;2.50;;
25990;SDS011;13779;-33.886;151.198;2023-01-05T11:01:49;23.00;;;3.33;;
25990;SDS011;13779;-33.886;151.198;2023-01-05T11:04:20;23.33;;;3.88;;
25990;SDS011;13779;-33.886;151.198;2023-01-05T11:07:03;17.88;;;2.78;;
25990;SDS011;13779;-33.886;151.198;2023-01-05T11:09:38;18.92;;;3.70;;
25990;SDS011;13779;-33.886;151.198;2023-01-05T11:12:17;18.83;;;3.75;;
25990;SDS011;13779;-33.886;151.198;2023-01-05T11:14:54;15.63;;;2.95;;
25990;SDS011;13779;-33.886;151.198;2023-01-05T11:17:26;15.13;;;3.03;;
25990;SDS011;13779;-33.886;151.198;2023-01-05T11:19:57;18.42;;;2.72;;
25990;SDS011;13779;-33.886;151.198;2023-01-05T11:25:18;15.95;;;3.13;;
25990;SDS011;13779;-33.886;151.198;2023-01-05T11:28:09;17.25;;;3.22;;
25990;SDS011;13779;-33.886;151.198;2023-01-05T11:30:56;21.90;;;4.50;;
25990;SDS011;13779;-33.886;151.198;2023-01-05T11:33:33;18.40;;;2.65;;
25990;SDS011;13779;-33.886;151.198;2023-01-05T11:36:06;16.63;;;2.90;;
25990;SDS011;13779;-33.886;151.198;2023-01-05T11:38:41;15.82;;;2.85;;
25990;SDS011;13779;-33.886;151.198;2023-01-05T11:41:11;14.88;;;3.08;;
25990;SDS011;13779;-33.886;151.198;2023-01-05T11:43:42;17.88;;;3.15;;
25990;SDS011;13779;-33.886;151.198;2023-01-05T11:46:15;15.45;;;3.08;;
25990;SDS011;13779;-33.886;151.198;2023-01-05T11:48:53;12.70;;;2.85;;
25990;SDS011;13779;-33.886;151.198;2023-01-05T11:51:31;15.80;;;2.88;;
25990;SDS011;13779;-33.886;151.198;2023-01-05T11:54:04;21.77;;;4.20;;
25990;SDS011;13779;-33.886;151.198;2023-01-05T11:57:11;16.73;;;2.97;;
25990;SDS011;13779;-33.886;151.198;2023-01-05T11:59:45;18.65;;;3.33;;
25990;SDS011;13779;-33.886;151.198;2023-01-05T12:05:35;17.35;;;2.95;;
25990;SDS011;13779;-33.886;151.198;2023-01-05T12:08:23;19.75;;;3.28;;
25990;SDS011;13779;-33.886;151.198;2023-01-05T12:21:42;14.27;;;3.08;;
25990;SDS011;13779;-33.886;151.198;2023-01-05T12:39:18;15.20;;;2.72;;
25990;SDS011;13779;-33.886;151.198;2023-01-05T12:42:27;9.45;;;2.38;;
25990;SDS011;13779;-33.886;151.198;2023-01-05T12:50:56;14.38;;;3.85;;
25990;SDS011;13779;-33.886;151.198;2023-01-05T12:53:38;13.57;;;2.50;;
25990;SDS011;13779;-33.886;151.198;2023-01-05T12:56:24;17.15;;;3.08;;
25990;SDS011;13779;-33.886;151.198;2023-01-05T13:02:37;13.18;;;3.13;;
25990;SDS011;13779;-33.886;151.198;2023-01-05T13:10:42;16.38;;;2.45;;
25990;SDS011;13779;-33.886;151.198;2023-01-05T13:13:38;10.80;;;2.53;;
25990;SDS011;13779;-33.886;151.198;2023-01-05T13:16:26;15.25;;;3.15;;
25990;SDS011;13779;-33.886;151.198;2023-01-05T13:19:08;14.05;;;2.80;;
25990;SDS011;13779;-33.886;151.198;2023-01-05T13:21:43;9.25;;;2.60;;
25990;SDS011;13779;-33.886;151.198;2023-01-05T13:24:19;13.15;;;2.25;;
25990;SDS011;13779;-33.886;151.198;2023-01-05T13:26:55;14.55;;;3.33;;
25990;SDS011;13779;-33.886;151.198;2023-01-05T13:29:31;11.07;;;3.10;;
25990;SDS011;13779;-33.886;151.198;2023-01-05T13:43:45;14.85;;;3.35;;
25990;SDS011;13779;-33.886;151.198;2023-01-05T13:52:14;17.50;;;2.85;;
25990;SDS011;13779;-33.886;151.198;2023-01-05T13:55:01;15.82;;;3.15;;
25990;SDS011;13779;-33.886;151.198;2023-01-05T13:57:43;14.45;;;2.78;;
25990;SDS011;13779;-33.886;151.198;2023-01-05T14:03:23;13.48;;;2.58;;
25990;SDS011;13779;-33.886;151.198;2023-01-05T14:06:25;15.85;;;2.80;;
25990;SDS011;13779;-33.886;151.198;2023-01-05T14:09:06;20.38;;;3.75;;
25990;SDS011;13779;-33.886;151.198;2023-01-05T14:15:03;9.57;;;2.30;;
25990;SDS011;13779;-33.886;151.198;2023-01-05T14:20:30;15.05;;;3.33;;
25990;SDS011;13779;-33.886;151.198;2023-01-05T14:23:50;11.23;;;3.35;;
25990;SDS011;13779;-33.886;151.198;2023-01-05T14:34:01;17.38;;;2.83;;
25990;SDS011;13779;-33.886;151.198;2023-01-05T14:36:59;18.73;;;3.47;;
25990;SDS011;13779;-33.886;151.198;2023-01-05T14:39:42;15.55;;;2.58;;
25990;SDS011;13779;-33.886;151.198;2023-01-05T14:47:39;12.23;;;2.40;;
25990;SDS011;13779;-33.886;151.198;2023-01-05T15:01:16;15.52;;;2.47;;
25990;SDS011;13779;-33.886;151.198;2023-01-05T15:04:17;11.55;;;2.45;;
25990;SDS011;13779;-33.886;151.198;2023-01-05T15:10:07;8.23;;;2.20;;
25990;SDS011;13779;-33.886;151.198;2023-01-05T15:13:38;17.45;;;2.45;;
25990;SDS011;13779;-33.886;151.198;2023-01-05T15:18:45;11.18;;;2.47;;
25990;SDS011;13779;-33.886;151.198;2023-01-05T15:30:03;13.48;;;1.92;;
25990;SDS011;13779;-33.886;151.198;2023-01-05T15:32:44;10.02;;;1.90;;
25990;SDS011;13779;-33.886;151.198;2023-01-05T15:37:50;14.73;;;2.78;;
25990;SDS011;13779;-33.886;151.198;2023-01-05T15:42:52;11.98;;;2.08;;
25990;SDS011;13779;-33.886;151.198;2023-01-05T15:45:28;17.25;;;2.42;;
25990;SDS011;13779;-33.886;151.198;2023-01-05T15:48:07;11.55;;;2.85;;
25990;SDS011;13779;-33.886;151.198;2023-01-05T15:50:52;9.57;;;2.05;;
25990;SDS011;13779;-33.886;151.198;2023-01-05T15:53:34;10.98;;;2.17;;
25990;SDS011;13779;-33.886;151.198;2023-01-05T15:56:28;10.18;;;2.42;;
25990;SDS011;13779;-33.886;151.198;2023-01-05T15:58:59;12.50;;;2.47;;
25990;SDS011;13779;-33.886;151.198;2023-01-05T16:01:35;9.93;;;2.50;;
25990;SDS011;13779;-33.886;151.198;2023-01-05T16:04:07;14.07;;;1.83;;
25990;SDS011;13779;-33.886;151.198;2023-01-05T16:06:45;10.57;;;2.03;;
25990;SDS011;13779;-33.886;151.198;2023-01-05T16:09:19;9.10;;;2.38;;
25990;SDS011;13779;-33.886;151.198;2023-01-05T16:12:03;11.07;;;2.53;;
25990;SDS011;13779;-33.886;151.198;2023-01-05T16:14:39;11.30;;;2.10;;
25990;SDS011;13779;-33.886;151.198;2023-01-05T16:17:15;10.23;;;2.30;;
25990;SDS011;13779;-33.886;151.198;2023-01-05T16:19:50;14.73;;;2.72;;
25990;SDS011;13779;-33.886;151.198;2023-01-05T16:22:43;9.45;;;2.20;;
25990;SDS011;13779;-33.886;151.198;2023-01-05T16:25:22;7.32;;;2.65;;
25990;SDS011;13779;-33.886;151.198;2023-01-05T16:27:57;8.15;;;1.98;;
25990;SDS011;13779;-33.886;151.198;2023-01-05T16:30:35;10.02;;;2.33;;
25990;SDS011;13779;-33.886;151.198;2023-01-05T16:35:43;12.02;;;1.90;;
25990;SDS011;13779;-33.886;151.198;2023-01-05T16:38:27;9.52;;;2.63;;
25990;SDS011;13779;-33.886;151.198;2023-01-05T16:43:59;10.45;;;2.05;;
25990;SDS011;13779;-33.886;151.198;2023-01-05T16:46:32;10.67;;;2.10;;
25990;SDS011;13779;-33.886;151.198;2023-01-05T16:52:00;10.45;;;2.22;;
25990;SDS011;13779;-33.886;151.198;2023-01-05T16:54:39;8.07;;;2.08;;
25990;SDS011;13779;-33.886;151.198;2023-01-05T17:00:03;11.57;;;2.15;;
25990;SDS011;13779;-33.886;151.198;2023-01-05T17:03:02;7.05;;;1.73;;
25990;SDS011;13779;-33.886;151.198;2023-01-05T17:06:00;7.95;;;1.48;;
25990;SDS011;13779;-33.886;151.198;2023-01-05T17:08:32;5.93;;;1.55;;
25990;SDS011;13779;-33.886;151.198;2023-01-05T17:11:07;11.02;;;1.60;;
25990;SDS011;13779;-33.886;151.198;2023-01-05T17:13:52;7.57;;;1.83;;
25990;SDS011;13779;-33.886;151.198;2023-01-05T17:16:23;8.98;;;1.88;;
25990;SDS011;13779;-33.886;151.198;2023-01-05T17:18:53;6.07;;;1.85;;
25990;SDS011;13779;-33.886;151.198;2023-01-05T17:21:25;9.15;;;1.50;;
25990;SDS011;13779;-33.886;151.198;2023-01-05T17:23:59;5.85;;;1.38;;
25990;SDS011;13779;-33.886;151.198;2023-01-05T17:26:33;7.27;;;1.60;;
25990;SDS011;13779;-33.886;151.198;2023-01-05T17:29:06;7.25;;;1.35;;
25990;SDS011;13779;-33.886;151.198;2023-01-05T17:31:42;8.20;;;1.85;;
25990;SDS011;13779;-33.886;151.198;2023-01-05T17:36:43;5.47;;;1.65;;
25990;SDS011;13779;-33.886;151.198;2023-01-05T17:39:16;3.45;;;1.10;;
25990;SDS011;13779;-33.886;151.198;2023-01-05T17:41:47;4.60;;;1.33;;
25990;SDS011;13779;-33.886;151.198;2023-01-05T17:44:18;5.03;;;1.20;;
25990;SDS011;13779;-33.886;151.198;2023-01-05T17:46:49;3.60;;;1.10;;
25990;SDS011;13779;-33.886;151.198;2023-01-05T17:49:19;3.23;;;1.27;;
25990;SDS011;13779;-33.886;151.198;2023-01-05T17:51:51;7.43;;;1.30;;
25990;SDS011;13779;-33.886;151.198;2023-01-05T17:54:21;7.10;;;1.33;;
25990;SDS011;13779;-33.886;151.198;2023-01-05T17:56:52;5.70;;;1.20;;
25990;SDS011;13779;-33.886;151.198;2023-01-05T17:59:23;3.47;;;1.30;;
25990;SDS011;13779;-33.886;151.198;2023-01-05T18:01:55;3.03;;;1.20;;
25990;SDS011;13779;-33.886;151.198;2023-01-05T18:04:26;3.80;;;1.20;;